createdAt,value
2022-10-19T00:00:49.924Z,98.05
2022-10-19T00:03:54.195Z,94.47
2022-10-19T00:06:55.741Z,151.32
2022-10-19T00:09:57.299Z,34.53
2022-10-19T00:12:59.093Z,72.20
2022-10-19T00:16:01.426Z,64.72
2022-10-19T00:19:06.783Z,40.53
2022-10-19T00:22:11.601Z,95.40
2022-10-19T00:25:15.529Z,101.25
2022-10-19T00:28:17.137Z,155.52
2022-10-19T00:31:18.799Z,63.83
2022-10-19T00:34:20.397Z,203.13
2022-10-19T00:37:21.963Z,60.83
2022-10-19T00:40:23.533Z,128.82
2022-10-19T00:43:27.601Z,53.53
2022-10-19T00:46:32.324Z,84.32
2022-10-19T00:49:37.654Z,93.50
2022-10-19T00:52:39.345Z,33.25
2022-10-19T00:55:41.427Z,34.42
2022-10-19T00:58:44.342Z,23.70
2022-10-19T01:01:46.880Z,31.13
2022-10-19T01:04:52.114Z,25.25
2022-10-19T01:07:54.720Z,49.47
2022-10-19T01:11:11.739Z,24.38
2022-10-19T01:14:37.764Z,59.70
2022-10-19T01:17:48.137Z,23.90
2022-10-19T01:21:08.295Z,90.80
2022-10-19T01:24:15.774Z,68.82
2022-10-19T01:27:51.417Z,58.92
2022-10-19T01:31:20.566Z,23.75
2022-10-19T01:34:32.687Z,38.67
2022-10-19T01:37:48.745Z,64.63
2022-10-19T01:41:00.060Z,37.30
2022-10-19T01:44:11.802Z,32.25
2022-10-19T01:47:30.856Z,21.17
2022-10-19T01:50:59.973Z,151.98
2022-10-19T01:54:06.022Z,55.25
2022-10-19T01:57:11.200Z,25.88
2022-10-19T02:00:14.906Z,33.08
2022-10-19T02:03:19.807Z,37.47
2022-10-19T02:06:22.071Z,67.43
2022-10-19T02:09:23.630Z,60.30
2022-10-19T02:12:28.359Z,57.00
2022-10-19T02:15:33.597Z,61.78
2022-10-19T02:18:40.113Z,83.05
2022-10-19T02:21:41.726Z,92.63
2022-10-19T02:24:43.303Z,47.65
2022-10-19T02:27:45.139Z,68.47
2022-10-19T02:30:47.094Z,32.30
2022-10-19T02:33:48.687Z,51.40
2022-10-19T02:36:50.619Z,30.33
2022-10-19T02:39:52.356Z,37.45
2022-10-19T02:43:01.865Z,63.30
2022-10-19T02:46:27.893Z,30.58
2022-10-19T02:49:32.917Z,73.03
2022-10-19T02:52:37.137Z,57.63
2022-10-19T02:58:45.569Z,33.38
2022-10-19T03:01:47.228Z,60.47
2022-10-19T03:04:48.958Z,40.33
2022-10-19T03:07:50.558Z,138.93
2022-10-19T03:10:52.137Z,78.88
2022-10-19T03:13:53.693Z,37.40
2022-10-19T03:16:55.339Z,87.25
2022-10-19T03:19:56.946Z,35.65
2022-10-19T03:22:58.545Z,64.13
2022-10-19T03:26:00.397Z,23.70
2022-10-19T03:29:01.996Z,32.15
2022-10-19T03:32:04.158Z,21.40
2022-10-19T03:35:06.291Z,77.28
2022-10-19T03:38:07.942Z,77.82
2022-10-19T03:41:09.991Z,26.25
2022-10-19T03:44:12.260Z,33.58
2022-10-19T03:47:13.880Z,25.85
2022-10-19T03:50:17.003Z,18.95
2022-10-19T03:53:18.533Z,34.75
2022-10-19T03:56:22.700Z,45.88
2022-10-19T03:59:24.503Z,59.97
2022-10-19T04:02:29.154Z,75.03
2022-10-19T04:05:30.723Z,105.10
2022-10-19T04:08:32.701Z,22.95
2022-10-19T04:11:34.725Z,105.50
2022-10-19T04:14:52.418Z,102.90
2022-10-19T04:17:58.005Z,45.58
2022-10-19T04:21:04.422Z,19.67
2022-10-19T04:24:09.230Z,25.95
2022-10-19T04:27:10.850Z,26.67
2022-10-19T04:30:12.436Z,70.78
2022-10-19T04:33:14.056Z,38.40
2022-10-19T04:36:15.978Z,35.80
2022-10-19T04:39:17.639Z,36.83
2022-10-19T04:42:19.241Z,92.65
2022-10-19T04:45:20.849Z,29.05
2022-10-19T04:48:22.921Z,28.25
2022-10-19T04:51:25.188Z,35.33
2022-10-19T04:54:26.803Z,29.77
2022-10-19T04:57:29.353Z,38.88
2022-10-19T05:00:30.933Z,42.75
2022-10-19T05:03:32.686Z,21.48
2022-10-19T05:06:34.261Z,56.70
2022-10-19T05:09:35.896Z,25.52
2022-10-19T05:12:37.612Z,21.35
2022-10-19T05:15:39.169Z,12.80
2022-10-19T05:18:41.143Z,33.58
2022-10-19T05:21:42.731Z,39.25
2022-10-19T05:24:44.364Z,14.88
2022-10-19T05:27:51.403Z,18.52
2022-10-19T05:30:52.938Z,26.42
2022-10-19T05:33:56.319Z,100.93
2022-10-19T05:36:58.045Z,29.45
2022-10-19T05:39:59.582Z,18.05
2022-10-19T05:43:01.189Z,17.23
2022-10-19T05:46:08.041Z,66.35
2022-10-19T05:49:13.831Z,26.38
2022-10-19T05:52:17.686Z,29.58
2022-10-19T05:55:19.259Z,23.95
2022-10-19T05:58:21.396Z,35.55
2022-10-19T06:01:26.618Z,27.17
2022-10-19T06:04:28.264Z,39.05
2022-10-19T06:07:29.917Z,22.33
2022-10-19T06:10:31.557Z,27.55
2022-10-19T06:13:33.184Z,30.92
2022-10-19T06:16:35.024Z,25.90
2022-10-19T06:19:36.969Z,77.72
2022-10-19T06:22:38.557Z,24.20
2022-10-19T06:25:40.667Z,20.70
2022-10-19T06:28:43.842Z,24.98
2022-10-19T06:31:46.421Z,22.88
2022-10-19T06:34:48.001Z,21.27
2022-10-19T06:37:50.060Z,23.35
2022-10-19T06:40:52.002Z,23.50
2022-10-19T06:43:54.937Z,20.23
2022-10-19T06:46:56.648Z,16.60
2022-10-19T06:49:58.342Z,37.60
2022-10-19T06:52:59.931Z,20.00
2022-10-19T06:56:04.715Z,19.05
2022-10-19T06:59:06.292Z,50.92
2022-10-19T07:02:08.012Z,21.95
2022-10-19T07:05:10.327Z,22.73
2022-10-19T07:08:12.027Z,22.58
2022-10-19T07:11:19.167Z,22.58
2022-10-19T07:14:20.808Z,22.10
2022-10-19T07:17:27.987Z,19.95
2022-10-19T07:20:29.630Z,19.70
2022-10-19T07:23:32.959Z,17.50
2022-10-19T07:26:34.681Z,16.52
2022-10-19T07:29:39.343Z,20.67
2022-10-19T07:32:44.522Z,13.77
2022-10-19T07:35:48.533Z,19.92
2022-10-19T07:38:50.179Z,13.45
2022-10-19T07:41:51.865Z,20.58
2022-10-19T07:44:53.516Z,13.35
2022-10-19T07:47:55.219Z,12.50
2022-10-19T07:50:57.246Z,18.65
2022-10-19T07:53:59.545Z,19.30
2022-10-19T07:57:01.144Z,18.13
2022-10-19T08:00:03.683Z,26.50
2022-10-19T08:06:36.636Z,20.05
2022-10-19T08:09:52.766Z,14.30
2022-10-19T08:12:55.265Z,15.40
2022-10-19T08:15:56.930Z,13.18
2022-10-19T08:19:02.395Z,13.77
2022-10-19T08:22:04.037Z,14.88
2022-10-19T08:25:06.193Z,17.63
2022-10-19T08:28:07.863Z,24.88
2022-10-19T08:31:21.705Z,14.07
2022-10-19T08:34:23.365Z,27.80
2022-10-19T08:37:40.128Z,17.77
2022-10-19T08:40:46.065Z,16.90
2022-10-19T08:44:12.595Z,13.75
2022-10-19T08:47:23.187Z,14.13
2022-10-19T08:50:31.781Z,21.98
2022-10-19T08:54:00.333Z,14.68
2022-10-19T08:57:21.380Z,11.45
2022-10-19T09:00:43.486Z,12.07
2022-10-19T09:03:56.126Z,14.40
2022-10-19T09:07:16.219Z,13.48
2022-10-19T09:10:28.884Z,12.63
2022-10-19T09:13:47.226Z,9.30
2022-10-19T09:17:06.660Z,10.23
2022-10-19T09:20:20.135Z,9.98
2022-10-19T09:23:28.665Z,9.20
2022-10-19T09:26:34.449Z,10.98
2022-10-19T09:29:47.710Z,4.70
2022-10-19T09:35:56.367Z,4.75
2022-10-19T09:38:57.976Z,6.25
2022-10-19T09:42:07.628Z,10.43
2022-10-19T09:45:19.755Z,7.68
2022-10-19T09:48:44.348Z,5.78
2022-10-19T09:51:52.222Z,8.18
2022-10-19T09:55:04.454Z,8.90
2022-10-19T09:58:17.927Z,10.68
2022-10-19T10:01:43.165Z,7.30
2022-10-19T10:04:47.007Z,5.40
2022-10-19T10:07:55.102Z,4.55
2022-10-19T10:11:07.053Z,5.32
2022-10-19T10:14:27.229Z,4.35
2022-10-19T10:17:30.638Z,5.95
2022-10-19T10:20:32.735Z,5.97
2022-10-19T10:23:36.533Z,6.53
2022-10-19T10:26:44.029Z,4.68
2022-10-19T10:33:13.544Z,7.88
2022-10-19T10:36:25.636Z,5.93
2022-10-19T10:39:28.763Z,7.70
2022-10-19T10:42:43.826Z,6.28
2022-10-19T10:45:52.918Z,4.20
2022-10-19T10:49:02.906Z,6.20
2022-10-19T10:52:12.054Z,2.95
2022-10-19T10:55:16.752Z,5.57
2022-10-19T10:58:32.237Z,6.80
2022-10-19T11:01:41.104Z,3.08
2022-10-19T11:04:52.442Z,4.85
2022-10-19T11:08:06.113Z,6.10
2022-10-19T11:11:23.930Z,4.60
2022-10-19T11:14:28.430Z,6.75
2022-10-19T11:17:33.768Z,5.53
2022-10-19T11:20:42.523Z,6.03
2022-10-19T11:24:08.890Z,9.35
2022-10-19T11:27:25.390Z,7.13
2022-10-19T11:30:27.549Z,5.90
2022-10-19T11:33:48.512Z,3.10
2022-10-19T11:37:19.219Z,4.43
2022-10-19T11:41:06.120Z,5.55
2022-10-19T11:44:33.402Z,4.07
2022-10-19T11:47:52.185Z,6.68
2022-10-19T11:51:21.888Z,4.25
2022-10-19T11:55:01.659Z,8.77
2022-10-19T11:58:34.804Z,9.07
2022-10-19T12:01:42.706Z,3.30
2022-10-19T12:04:57.096Z,4.70
2022-10-19T12:08:01.793Z,6.22
2022-10-19T12:11:23.970Z,4.53
2022-10-19T12:14:30.247Z,5.40
2022-10-19T12:17:37.532Z,6.03
2022-10-19T12:20:46.887Z,3.58
2022-10-19T12:23:48.799Z,6.35
2022-10-19T12:26:51.892Z,7.00
2022-10-19T12:29:54.569Z,6.50
2022-10-19T12:33:07.538Z,3.08
2022-10-19T12:36:20.973Z,5.95
2022-10-19T12:39:39.180Z,5.75
2022-10-19T12:42:53.926Z,4.13
2022-10-19T12:46:25.633Z,6.57
2022-10-19T12:49:38.432Z,3.42
2022-10-19T12:52:44.530Z,4.72
2022-10-19T12:55:46.301Z,5.78
2022-10-19T12:59:01.791Z,7.20
2022-10-19T13:02:06.593Z,7.57
2022-10-19T13:05:08.516Z,6.75
2022-10-19T13:08:27.543Z,3.50
2022-10-19T13:11:29.600Z,5.28
2022-10-19T13:14:50.208Z,4.33
2022-10-19T13:17:52.321Z,6.22
2022-10-19T13:20:54.209Z,6.57
2022-10-19T13:24:24.546Z,4.35
2022-10-19T13:27:28.098Z,5.65
2022-10-19T13:30:36.173Z,7.50
2022-10-19T13:33:45.162Z,5.43
2022-10-19T13:37:00.376Z,6.78
2022-10-19T13:40:24.440Z,8.32
2022-10-19T13:43:53.639Z,6.57
2022-10-19T13:47:16.687Z,6.40
2022-10-19T13:50:45.967Z,5.70
2022-10-19T13:53:57.560Z,4.93
2022-10-19T13:57:17.944Z,4.38
2022-10-19T14:00:21.582Z,3.08
2022-10-19T14:03:42.183Z,8.63
2022-10-19T14:06:48.973Z,5.10
2022-10-19T14:10:00.415Z,5.68
2022-10-19T14:13:05.476Z,5.10
2022-10-19T14:16:07.646Z,5.80
2022-10-19T14:19:14.149Z,3.87
2022-10-19T14:22:36.125Z,4.72
2022-10-19T14:25:37.887Z,6.35
2022-10-19T14:28:41.095Z,4.63
2022-10-19T14:31:43.083Z,6.85
2022-10-19T14:34:47.007Z,4.93
2022-10-19T14:37:49.317Z,3.58
2022-10-19T14:40:51.087Z,4.78
2022-10-19T14:43:53.626Z,7.22
2022-10-19T14:46:56.636Z,4.47
2022-10-19T14:49:58.302Z,5.15
2022-10-19T14:53:32.272Z,6.22
2022-10-19T14:56:39.077Z,3.65
2022-10-19T14:59:46.736Z,6.78
2022-10-19T15:02:51.721Z,4.03
2022-10-19T15:06:01.246Z,5.97
2022-10-19T15:09:09.413Z,2.70
2022-10-19T15:12:22.175Z,5.78
2022-10-19T15:15:29.798Z,5.35
2022-10-19T15:18:55.895Z,7.53
2022-10-19T15:22:16.531Z,6.85
2022-10-19T15:25:29.141Z,7.25
2022-10-19T15:28:40.567Z,5.82
2022-10-19T15:31:43.414Z,5.20
2022-10-19T15:34:46.016Z,6.45
2022-10-19T15:37:49.344Z,6.38
2022-10-19T15:40:57.858Z,5.05
2022-10-19T15:44:02.669Z,12.57
2022-10-19T15:47:19.488Z,15.02
2022-10-19T15:50:37.037Z,4.55
2022-10-19T15:53:38.602Z,7.18
2022-10-19T15:56:40.382Z,5.20
2022-10-19T15:59:42.052Z,6.45
2022-10-19T16:02:44.177Z,7.53
2022-10-19T16:05:45.733Z,4.45
2022-10-19T16:08:47.458Z,5.55
2022-10-19T16:11:50.169Z,10.15
2022-10-19T16:14:52.719Z,7.35
2022-10-19T16:17:57.833Z,6.57
2022-10-19T16:20:59.767Z,5.03
2022-10-19T16:24:02.079Z,9.32
2022-10-19T16:27:04.221Z,4.77
2022-10-19T16:30:06.950Z,5.93
2022-10-19T16:33:08.683Z,6.47
2022-10-19T16:36:10.542Z,5.68
2022-10-19T16:39:12.327Z,8.25
2022-10-19T16:42:13.973Z,5.82
2022-10-19T16:45:15.641Z,4.63
2022-10-19T16:48:19.832Z,5.40
2022-10-19T16:51:29.110Z,11.80
2022-10-19T16:54:31.039Z,7.18
2022-10-19T16:57:32.748Z,7.93
2022-10-19T17:00:35.789Z,8.07
2022-10-19T17:03:38.042Z,10.07
2022-10-19T17:06:40.817Z,5.97
2022-10-19T17:09:43.268Z,8.23
2022-10-19T17:12:45.111Z,10.00
2022-10-19T17:15:46.996Z,7.40
2022-10-19T17:18:49.221Z,7.72
2022-10-19T17:21:50.971Z,8.32
2022-10-19T17:24:54.127Z,8.50
2022-10-19T17:27:55.789Z,15.60
2022-10-19T17:31:02.142Z,12.00
2022-10-19T17:34:04.485Z,10.00
2022-10-19T17:37:06.304Z,7.43
2022-10-19T17:40:08.751Z,9.82
2022-10-19T17:43:10.833Z,11.13
2022-10-19T17:46:14.611Z,5.28
2022-10-19T17:49:16.523Z,8.23
2022-10-19T17:52:18.211Z,8.93
2022-10-19T17:55:19.938Z,6.07
2022-10-19T17:58:22.215Z,7.40
2022-10-19T18:01:24.413Z,6.95
2022-10-19T18:04:26.323Z,5.88
2022-10-19T18:07:28.234Z,4.78
2022-10-19T18:10:30.206Z,4.10
2022-10-19T18:16:47.702Z,12.60
2022-10-19T18:19:50.661Z,11.82
2022-10-19T18:22:52.954Z,5.55
2022-10-19T18:25:55.802Z,6.13
2022-10-19T18:29:01.245Z,9.48
2022-10-19T18:35:13.331Z,13.68
2022-10-19T18:38:15.398Z,12.30
2022-10-19T18:41:18.929Z,10.90
2022-10-19T18:44:25.504Z,10.98
2022-10-19T18:47:30.849Z,28.40
2022-10-19T18:50:32.639Z,113.55
2022-10-19T18:53:35.365Z,25.20
2022-10-19T18:56:37.304Z,21.80
2022-10-19T18:59:39.142Z,41.05
2022-10-19T19:02:47.081Z,50.38
2022-10-19T19:05:49.269Z,29.25
2022-10-19T19:08:54.957Z,21.02
2022-10-19T19:11:58.359Z,13.02
2022-10-19T19:15:00.194Z,12.30
2022-10-19T19:18:02.079Z,8.95
2022-10-19T19:21:13.024Z,8.98
2022-10-19T19:24:18.122Z,10.73
2022-10-19T19:27:28.279Z,11.45
2022-10-19T19:30:32.751Z,9.60
2022-10-19T19:33:34.536Z,6.97
2022-10-19T19:36:38.256Z,9.57
2022-10-19T19:39:40.138Z,12.50
2022-10-19T19:42:41.701Z,7.68
2022-10-19T19:45:43.611Z,8.75
2022-10-19T19:48:47.969Z,10.98
2022-10-19T19:51:49.640Z,9.43
2022-10-19T19:54:51.273Z,9.57
2022-10-19T19:57:54.465Z,10.88
2022-10-19T20:00:56.032Z,8.32
2022-10-19T20:03:58.866Z,10.73
2022-10-19T20:07:00.759Z,7.95
2022-10-19T20:10:02.443Z,10.38
2022-10-19T20:16:08.687Z,6.53
2022-10-19T20:19:13.185Z,7.90
2022-10-19T20:22:14.822Z,7.55
2022-10-19T20:25:16.636Z,12.25
2022-10-19T20:28:18.165Z,9.18
2022-10-19T20:31:19.952Z,10.40
2022-10-19T20:34:21.936Z,9.45
2022-10-19T20:37:26.528Z,6.97
2022-10-19T20:43:36.037Z,9.27
2022-10-19T20:46:37.804Z,7.57
2022-10-19T20:49:41.047Z,9.18
2022-10-19T20:52:42.700Z,12.60
2022-10-19T20:55:44.470Z,10.38
2022-10-19T20:58:47.092Z,6.82
2022-10-19T21:01:50.675Z,7.85
2022-10-19T21:04:52.424Z,11.70
2022-10-19T21:07:54.096Z,9.77
2022-10-19T21:10:55.705Z,11.88
2022-10-19T21:14:08.953Z,22.13
2022-10-19T21:17:10.765Z,8.75
2022-10-19T21:20:12.433Z,9.70
2022-10-19T21:23:14.107Z,11.43
2022-10-19T21:26:16.502Z,9.95
2022-10-19T21:29:18.508Z,10.47
2022-10-19T21:32:21.024Z,11.57
2022-10-19T21:35:22.670Z,10.80
2022-10-19T21:38:24.229Z,11.40
2022-10-19T21:41:26.541Z,12.20
2022-10-19T21:44:28.345Z,12.07
2022-10-19T21:47:29.933Z,14.68
2022-10-19T21:50:31.617Z,11.10
2022-10-19T21:53:33.341Z,9.43
2022-10-19T21:56:36.410Z,14.23
2022-10-19T21:59:38.289Z,13.20
2022-10-19T22:02:39.873Z,12.52
2022-10-19T22:05:50.229Z,13.43
2022-10-19T22:08:53.485Z,16.27
2022-10-19T22:14:57.060Z,12.50
2022-10-19T22:17:58.617Z,10.75
2022-10-19T22:21:10.312Z,12.18
2022-10-19T22:24:15.346Z,17.70
2022-10-19T22:27:16.901Z,10.00
2022-10-19T22:30:18.528Z,13.45
2022-10-19T22:33:20.149Z,14.65
2022-10-19T22:36:22.139Z,14.80
2022-10-19T22:39:26.992Z,13.18
2022-10-19T22:42:29.650Z,11.30
2022-10-19T22:45:31.211Z,10.98
2022-10-19T22:48:32.857Z,10.10
2022-10-19T22:51:35.145Z,10.15
2022-10-19T22:54:36.911Z,13.07
2022-10-19T22:57:38.535Z,9.75
2022-10-19T23:00:40.275Z,9.52
2022-10-19T23:03:42.507Z,9.45
2022-10-19T23:06:47.226Z,11.90
2022-10-19T23:09:48.783Z,12.95
2022-10-19T23:12:51.992Z,7.72
2022-10-19T23:15:53.848Z,10.35
2022-10-19T23:18:55.453Z,9.27
2022-10-19T23:21:57.831Z,8.80
2022-10-19T23:24:59.362Z,10.57
2022-10-19T23:28:01.171Z,10.35
2022-10-19T23:31:14.309Z,8.68
2022-10-19T23:34:16.170Z,12.30
2022-10-19T23:37:17.892Z,7.97
2022-10-19T23:40:19.413Z,8.85
2022-10-19T23:43:21.018Z,8.30
2022-10-19T23:46:22.726Z,7.00
2022-10-19T23:49:24.462Z,9.48
2022-10-19T23:52:29.160Z,9.00
2022-10-19T23:55:30.775Z,10.00
2022-10-19T23:58:33.270Z,10.07
